This is the latest recevied weather packets stored in our database for station/object W5HKR. If no packets are shown the sender has not sent any weather packets the latest 10 day(s).
| Time | Temp. | Humidity | Pressure | Rain* | Wind** | Luminosity | Snow |
|---|---|---|---|---|---|---|---|
| 1777944508 | 24.44° C | 75% | 981 hPa | 0 mm | - | - | - |
| 1777944209 | 18.33° C | 91% | 990.6 hPa | 0 mm | - | - | - |
| 1777944119 | 24.44° C | 74% | 981.4 hPa | 0 mm | - | - | - |
| 1777943907 | 18.33° C | 91% | 990.6 hPa | 0 mm | - | - | - |
| 1777943607 | 25° C | 73% | 981 hPa | 0 mm | - | - | - |
| 1777943039 | 25° C | 72% | 981 hPa | 0 mm | - | - | - |
| 1777943008 | 25° C | 73% | 981.3 hPa | 0 mm | - | - | - |
| 1777942709 | 18.33° C | 91% | 990.6 hPa | 0 mm | - | - | - |
| 1777942407 | 25° C | 72% | 981 hPa | 0 mm | - | - | - |
| 1777942109 | 25.56° C | 72% | 980.7 hPa | 0 mm | - | - | - |
| 1777941958 | 18.33° C | 91% | 990.6 hPa | 0 mm | - | - | - |
| 1777941808 | 18.33° C | 91% | 990.6 hPa | 0 mm | - | - | - |
| 1777941208 | 18.33° C | 91% | 990.6 hPa | 0 mm | - | - | - |
| 1777940878 | 18.33° C | 91% | 990.6 hPa | 0 mm | - | - | - |
| 1777940608 | 18.33° C | 91% | 990.6 hPa | 0 mm | - | - | - |
| 1777940308 | 18.33° C | 91% | 990.6 hPa | 0 mm | - | - | - |
| 1777940008 | 26.67° C | 63% | 980.9 hPa | 0 mm | - | - | - |
| 1777939798 | 26.67° C | 62% | 981 hPa | 0 mm | - | - | - |
| 1777939707 | 26.67° C | 62% | 981 hPa | 0 mm | - | - | - |
| 1777939407 | 18.33° C | 91% | 990.6 hPa | 0 mm | - | - | - |
| 1777939108 | 26.67° C | 62% | 981 hPa | 0 mm | - | - | - |
| 1777938808 | 26.67° C | 62% | 981 hPa | 0 mm | - | - | - |
| 1777938717 | 26.67° C | 62% | 980.9 hPa | 0 mm | - | - | - |
| 1777938507 | 27.22° C | 62% | 981.3 hPa | 0 mm | - | - | - |
| 1777938207 | 27.22° C | 62% | 981.1 hPa | 0 mm | - | - | - |
* Rain latest hour (hover to see other rain measurements)
** Current wind speed in m/s (hover to see current wind gust speed)